createdAt,value
2022-10-14T00:03:22.589Z,19.05
2022-10-14T00:07:23.202Z,19.35
2022-10-14T00:11:27.464Z,19.30
2022-10-14T00:15:30.260Z,19.21
2022-10-14T00:19:30.421Z,18.99
2022-10-14T00:23:32.004Z,18.98
2022-10-14T00:27:32.197Z,19.27
2022-10-14T00:31:38.649Z,19.22
2022-10-14T00:35:38.795Z,18.91
2022-10-14T00:39:39.354Z,18.84
2022-10-14T00:44:06.997Z,18.67
2022-10-14T00:48:10.997Z,18.78
2022-10-14T00:52:17.868Z,18.70
2022-10-14T00:56:25.477Z,18.83
2022-10-14T01:00:26.274Z,18.87
2022-10-14T01:04:30.195Z,18.75
2022-10-14T01:08:42.850Z,18.79
2022-10-14T01:13:09.994Z,18.76
2022-10-14T01:17:21.486Z,18.87
2022-10-14T01:21:34.047Z,18.79
2022-10-14T01:25:45.551Z,18.91
2022-10-14T01:30:11.395Z,18.94
2022-10-14T01:34:20.459Z,18.92
2022-10-14T01:38:30.116Z,18.91
2022-10-14T01:42:41.002Z,19.07
2022-10-14T01:46:52.921Z,19.14
2022-10-14T01:50:57.168Z,19.00
2022-10-14T01:55:03.266Z,19.15
2022-10-14T01:59:06.103Z,19.19
2022-10-14T02:03:12.174Z,19.17
2022-10-14T02:07:22.716Z,19.37
2022-10-14T02:11:25.160Z,19.43
2022-10-14T02:15:36.336Z,19.35
2022-10-14T02:19:47.202Z,19.31
2022-10-14T02:23:56.716Z,19.44
2022-10-14T02:27:57.757Z,19.19
2022-10-14T02:31:59.646Z,19.31
2022-10-14T02:36:04.804Z,19.27
2022-10-14T02:40:14.653Z,19.22
2022-10-14T02:44:14.881Z,19.36
2022-10-14T02:48:15.869Z,19.31
2022-10-14T02:52:18.786Z,19.21
2022-10-14T02:56:20.695Z,19.00
2022-10-14T03:00:22.094Z,19.40
2022-10-14T03:04:22.661Z,19.53
2022-10-14T03:08:27.725Z,19.54
2022-10-14T03:12:30.234Z,19.30
2022-10-14T03:16:30.804Z,19.26
2022-10-14T03:20:31.969Z,19.22
2022-10-14T03:24:35.386Z,19.28
2022-10-14T03:29:05.211Z,19.57
2022-10-14T03:33:33.687Z,19.45
2022-10-14T03:37:44.918Z,19.58
2022-10-14T03:41:48.673Z,19.59
2022-10-14T03:45:52.365Z,19.69
2022-10-14T03:49:55.255Z,19.76
2022-10-14T03:54:01.104Z,19.63
2022-10-14T03:58:05.422Z,19.73
2022-10-14T04:02:05.925Z,19.82
2022-10-14T04:06:06.221Z,19.69
2022-10-14T04:10:07.920Z,19.56
2022-10-14T04:14:12.298Z,19.52
2022-10-14T04:18:19.299Z,19.56
2022-10-14T04:22:23.271Z,19.38
2022-10-14T04:26:27.443Z,19.29
2022-10-14T04:30:30.410Z,19.53
2022-10-14T04:34:32.428Z,19.55
2022-10-14T04:38:32.903Z,19.41
2022-10-14T04:42:37.953Z,19.36
2022-10-14T04:46:44.607Z,19.20
2022-10-14T04:50:45.288Z,19.25
2022-10-14T04:55:10.805Z,19.28
2022-10-14T04:59:16.427Z,19.30
2022-10-14T05:03:34.502Z,19.35
2022-10-14T05:07:34.911Z,19.67
2022-10-14T05:11:50.997Z,19.60
2022-10-14T05:15:55.820Z,19.63
2022-10-14T05:19:59.064Z,19.62
2022-10-14T05:24:00.689Z,19.53
2022-10-14T05:28:03.917Z,19.64
2022-10-14T05:32:04.181Z,19.61
2022-10-14T05:36:16.986Z,19.69
2022-10-14T05:40:17.237Z,19.80
2022-10-14T05:44:17.763Z,19.98
2022-10-14T05:48:20.485Z,19.75
2022-10-14T05:52:24.435Z,19.80
2022-10-14T05:56:26.349Z,19.79
2022-10-14T06:00:27.414Z,19.78
2022-10-14T06:04:35.261Z,20.02
2022-10-14T06:08:40.002Z,20.04
2022-10-14T06:12:40.525Z,19.99
2022-10-14T06:16:40.853Z,19.82
2022-10-14T06:20:41.364Z,19.70
2022-10-14T06:24:44.090Z,19.80
2022-10-14T06:28:44.412Z,20.02
2022-10-14T06:32:44.742Z,20.15
2022-10-14T06:36:44.874Z,20.24
2022-10-14T06:40:47.578Z,20.28
2022-10-14T06:44:47.979Z,20.41
2022-10-14T06:48:50.295Z,20.50
2022-10-14T06:52:51.283Z,20.66
2022-10-14T06:56:53.994Z,20.79
2022-10-14T07:00:54.566Z,20.68
2022-10-14T07:04:57.320Z,20.81
2022-10-14T07:08:57.477Z,20.97
2022-10-14T07:13:00.316Z,21.20
2022-10-14T07:17:00.699Z,21.59
2022-10-14T07:21:05.027Z,21.62
2022-10-14T07:25:06.628Z,20.92
2022-10-14T07:29:12.452Z,21.38
2022-10-14T07:33:12.801Z,21.53
2022-10-14T07:37:15.381Z,21.56
2022-10-14T07:41:21.018Z,21.44
2022-10-14T07:45:23.776Z,21.29
2022-10-14T07:49:25.320Z,21.11
2022-10-14T07:53:26.291Z,20.99
2022-10-14T07:57:27.762Z,20.93
2022-10-14T08:01:34.084Z,21.08
2022-10-14T08:05:39.128Z,21.25
2022-10-14T08:09:40.447Z,21.02
2022-10-14T08:13:45.243Z,20.93
2022-10-14T08:17:49.129Z,21.18
2022-10-14T08:21:49.276Z,21.27
2022-10-14T08:25:52.427Z,20.99
2022-10-14T08:29:52.543Z,21.47
2022-10-14T08:33:55.728Z,21.38
2022-10-14T08:38:00.547Z,21.41
2022-10-14T08:42:40.062Z,21.74
2022-10-14T08:46:50.974Z,21.83
2022-10-14T08:51:02.509Z,21.76
2022-10-14T08:55:07.537Z,21.52
2022-10-14T08:59:16.188Z,20.99
2022-10-14T09:03:26.853Z,20.82
2022-10-14T09:07:30.020Z,21.13
2022-10-14T09:11:37.491Z,21.12
2022-10-14T09:15:45.307Z,21.16
2022-10-14T09:19:54.182Z,20.98
2022-10-14T09:24:28.617Z,20.41
2022-10-14T09:28:54.677Z,21.50
2022-10-14T09:33:14.140Z,22.05
2022-10-14T09:37:36.824Z,21.15
2022-10-14T09:41:48.661Z,23.05
2022-10-14T09:46:07.416Z,23.71
2022-10-14T09:50:53.397Z,23.63
2022-10-14T10:00:03.832Z,23.18
2022-10-14T10:04:36.010Z,23.92
2022-10-14T10:08:41.415Z,24.45
2022-10-14T10:12:47.263Z,24.65
2022-10-14T10:16:53.694Z,24.29
2022-10-14T10:21:09.778Z,24.17
2022-10-14T10:25:29.302Z,24.92
2022-10-14T10:29:35.526Z,26.09
2022-10-14T10:33:47.876Z,26.25
2022-10-14T10:38:06.555Z,26.96
2022-10-14T10:42:23.686Z,26.65
2022-10-14T10:46:51.490Z,26.62
2022-10-14T11:02:03.284Z,25.86
2022-10-14T11:07:33.636Z,26.28
2022-10-14T11:12:13.019Z,26.71
2022-10-14T11:16:32.264Z,27.00
2022-10-14T11:20:46.736Z,26.90
2022-10-14T11:25:19.338Z,27.28
2022-10-14T11:38:59.808Z,26.28
2022-10-14T11:43:22.414Z,27.44
2022-10-14T11:47:28.412Z,26.62
2022-10-14T11:51:38.880Z,26.89
2022-10-14T11:55:49.787Z,26.75
2022-10-14T12:00:07.837Z,26.42
2022-10-14T12:04:27.446Z,26.31
2022-10-14T12:08:35.873Z,26.09
2022-10-14T12:12:47.066Z,26.63
2022-10-14T12:16:51.367Z,28.55
2022-10-14T12:21:01.709Z,29.05
2022-10-14T12:25:09.732Z,28.27
2022-10-14T12:29:20.224Z,27.46
2022-10-14T12:33:23.075Z,27.61
2022-10-14T12:42:04.988Z,27.65
2022-10-14T12:46:18.535Z,27.45
2022-10-14T12:50:34.081Z,27.17
2022-10-14T12:54:37.817Z,26.89
2022-10-14T12:58:44.946Z,26.80
2022-10-14T13:02:51.719Z,26.73
2022-10-14T13:07:41.018Z,26.78
2022-10-14T13:12:08.964Z,25.46
2022-10-14T13:16:13.084Z,26.36
2022-10-14T13:20:55.338Z,26.59
2022-10-14T13:24:57.919Z,26.35
2022-10-14T13:29:25.766Z,26.20
2022-10-14T13:33:37.725Z,26.12
2022-10-14T13:37:45.807Z,26.25
2022-10-14T13:41:49.327Z,25.75
2022-10-14T13:45:55.637Z,25.47
2022-10-14T13:49:58.892Z,25.08
2022-10-14T13:54:01.823Z,25.24
2022-10-14T13:58:14.212Z,25.37
2022-10-14T14:02:19.840Z,25.56
2022-10-14T14:06:25.624Z,26.11
2022-10-14T14:10:28.049Z,26.29
2022-10-14T14:14:38.513Z,25.70
2022-10-14T14:18:56.077Z,25.85
2022-10-14T14:23:04.592Z,25.82
2022-10-14T14:27:05.072Z,25.45
2022-10-14T14:31:05.255Z,25.21
2022-10-14T14:35:18.070Z,25.15
2022-10-14T14:39:28.449Z,25.39
2022-10-14T14:43:34.589Z,25.33
2022-10-14T14:47:37.143Z,25.10
2022-10-14T14:51:41.784Z,25.14
2022-10-14T14:55:49.715Z,25.01
2022-10-14T15:00:05.245Z,24.77
2022-10-14T15:04:12.980Z,24.48
2022-10-14T15:08:25.887Z,24.35
2022-10-14T15:12:34.311Z,24.22
2022-10-14T15:16:42.388Z,24.21
2022-10-14T15:20:44.761Z,24.32
2022-10-14T15:25:04.447Z,24.01
2022-10-14T15:33:39.847Z,23.76
2022-10-14T15:37:40.089Z,23.53
2022-10-14T15:41:43.477Z,23.70
2022-10-14T15:46:09.085Z,23.59
2022-10-14T15:50:18.212Z,23.65
2022-10-14T15:54:27.139Z,23.61
2022-10-14T15:58:27.260Z,23.60
2022-10-14T16:02:36.209Z,23.60
2022-10-14T16:06:36.441Z,23.39
2022-10-14T16:10:37.070Z,23.59
2022-10-14T16:14:37.203Z,23.44
2022-10-14T16:18:40.006Z,23.23
2022-10-14T16:22:40.240Z,23.05
2022-10-14T16:26:42.245Z,23.18
2022-10-14T16:30:48.790Z,23.04
2022-10-14T16:34:51.511Z,22.87
2022-10-14T16:38:52.091Z,22.87
2022-10-14T16:42:53.362Z,22.88
2022-10-14T16:47:06.888Z,23.10
2022-10-14T16:51:10.431Z,23.11
2022-10-14T16:55:11.774Z,23.24
2022-10-14T16:59:14.954Z,23.22
2022-10-14T17:03:15.370Z,23.10
2022-10-14T17:07:20.126Z,23.11
2022-10-14T17:11:20.790Z,23.00
2022-10-14T17:15:21.147Z,23.07
2022-10-14T17:19:23.990Z,23.09
2022-10-14T17:23:26.776Z,22.94
2022-10-14T17:27:26.976Z,22.89
2022-10-14T17:31:29.017Z,22.50
2022-10-14T17:35:29.233Z,22.64
2022-10-14T17:39:35.328Z,22.60
2022-10-14T17:43:38.310Z,22.39
2022-10-14T17:47:44.995Z,22.54
2022-10-14T17:51:45.490Z,22.35
2022-10-14T17:55:48.214Z,22.48
2022-10-14T17:59:48.314Z,22.41
2022-10-14T18:03:48.483Z,22.55
2022-10-14T18:07:48.623Z,22.35
2022-10-14T18:16:14.898Z,22.48
2022-10-14T18:20:15.302Z,22.52
2022-10-14T18:24:16.301Z,22.76
2022-10-14T18:28:20.886Z,22.43
2022-10-14T18:32:22.429Z,22.49
2022-10-14T18:36:29.154Z,22.45
2022-10-14T18:40:40.494Z,22.28
2022-10-14T18:44:45.172Z,22.49
2022-10-14T18:48:50.637Z,22.62
2022-10-14T18:52:51.348Z,22.47
2022-10-14T18:56:51.518Z,22.86
2022-10-14T19:00:56.119Z,23.17
2022-10-14T19:04:57.036Z,23.25
2022-10-14T19:08:57.547Z,23.08
2022-10-14T19:12:57.638Z,23.12
2022-10-14T19:17:00.296Z,22.95
2022-10-14T19:21:09.063Z,22.76
2022-10-14T19:25:10.945Z,22.58
2022-10-14T19:29:14.493Z,22.30
2022-10-14T19:33:17.351Z,22.43
2022-10-14T19:37:17.603Z,22.44
2022-10-14T19:41:18.794Z,22.04
2022-10-14T19:45:23.983Z,22.37
2022-10-14T19:49:31.391Z,22.29
2022-10-14T19:53:31.895Z,21.72
2022-10-14T19:57:32.037Z,22.33
2022-10-14T20:01:33.893Z,22.34
2022-10-14T20:05:37.393Z,22.50
2022-10-14T20:09:40.717Z,22.63
2022-10-14T20:13:41.317Z,22.32
2022-10-14T20:17:41.710Z,22.42
2022-10-14T20:21:46.062Z,22.29
2022-10-14T20:25:46.607Z,22.47
2022-10-14T20:29:46.871Z,22.46
2022-10-14T20:33:47.114Z,22.47
2022-10-14T20:37:49.848Z,22.38
2022-10-14T20:41:50.047Z,22.20
2022-10-14T20:45:50.202Z,22.33
2022-10-14T20:49:50.567Z,22.18
2022-10-14T20:54:01.718Z,22.23
2022-10-14T21:02:26.904Z,22.40
2022-10-14T21:06:29.573Z,22.25
2022-10-14T21:10:39.215Z,22.12
2022-10-14T21:14:39.439Z,22.47
2022-10-14T21:18:39.615Z,22.48
2022-10-14T21:22:39.687Z,22.51
2022-10-14T21:26:42.600Z,22.41
2022-10-14T21:30:44.380Z,22.35
2022-10-14T21:34:44.558Z,22.48
2022-10-14T21:38:45.085Z,22.47
2022-10-14T21:42:47.942Z,22.50
2022-10-14T21:46:48.102Z,22.48
2022-10-14T21:50:48.345Z,22.58
2022-10-14T21:54:48.438Z,22.54
2022-10-14T21:58:51.432Z,22.67
2022-10-14T22:02:55.614Z,22.77
2022-10-14T22:06:55.992Z,22.41
2022-10-14T22:10:57.426Z,22.19
2022-10-14T22:15:03.286Z,21.92
2022-10-14T22:19:08.570Z,22.09
2022-10-14T22:23:08.681Z,22.20
2022-10-14T22:27:09.434Z,22.31
2022-10-14T22:31:15.682Z,22.24
2022-10-14T22:35:15.801Z,22.13
2022-10-14T22:39:20.814Z,22.22
2022-10-14T22:43:20.975Z,22.08
2022-10-14T22:47:24.047Z,22.34
2022-10-14T22:55:45.517Z,21.72
2022-10-14T22:59:45.742Z,21.39
2022-10-14T23:03:48.507Z,21.52
2022-10-14T23:07:49.213Z,21.53
2022-10-14T23:11:49.342Z,21.46
2022-10-14T23:15:58.759Z,21.49
2022-10-14T23:20:01.496Z,21.66
2022-10-14T23:24:05.689Z,21.62
2022-10-14T23:28:05.835Z,21.78
2022-10-14T23:32:06.144Z,21.67
2022-10-14T23:36:12.102Z,21.89
2022-10-14T23:40:14.420Z,21.94
2022-10-14T23:44:14.780Z,21.69
2022-10-14T23:48:14.909Z,21.93
2022-10-14T23:52:17.694Z,21.71
2022-10-14T23:56:17.853Z,21.93
